createdAt,value
2022-11-12T00:02:49.965Z,3.10
2022-11-12T00:06:09.965Z,3.15
2022-11-12T00:09:30.156Z,3.17
2022-11-12T00:12:50.942Z,2.90
2022-11-12T00:16:11.345Z,4.03
2022-11-12T00:19:31.426Z,4.10
2022-11-12T00:22:51.578Z,3.67
2022-11-12T00:26:11.838Z,3.58
2022-11-12T00:29:32.097Z,3.47
2022-11-12T00:32:52.228Z,3.08
2022-11-12T00:36:12.589Z,3.55
2022-11-12T00:39:32.824Z,3.63
2022-11-12T00:42:53.577Z,3.47
2022-11-12T00:46:13.772Z,4.30
2022-11-12T00:49:34.229Z,4.85
2022-11-12T00:52:54.765Z,4.47
2022-11-12T00:56:15.852Z,4.57
2022-11-12T00:59:35.818Z,4.25
2022-11-12T01:02:55.989Z,5.25
2022-11-12T01:06:18.771Z,5.05
2022-11-12T01:09:39.857Z,5.40
2022-11-12T01:13:00.042Z,5.20
2022-11-12T01:16:22.161Z,4.53
2022-11-12T01:19:42.499Z,4.28
2022-11-12T01:23:02.547Z,3.78
2022-11-12T01:26:22.966Z,4.15
2022-11-12T01:29:43.435Z,4.00
2022-11-12T01:33:03.711Z,3.85
2022-11-12T01:36:25.237Z,4.38
2022-11-12T01:39:45.608Z,3.83
2022-11-12T01:43:13.662Z,4.43
2022-11-12T01:46:37.356Z,4.25
2022-11-12T01:50:11.457Z,3.53
2022-11-12T01:53:37.572Z,2.70
2022-11-12T01:56:59.473Z,3.13
2022-11-12T02:00:20.254Z,3.25
2022-11-12T02:03:40.591Z,4.90
2022-11-12T02:07:02.279Z,3.42
2022-11-12T02:10:23.203Z,4.72
2022-11-12T02:14:03.561Z,3.10
2022-11-12T02:17:23.877Z,2.92
2022-11-12T02:20:44.385Z,3.20
2022-11-12T02:24:25.053Z,3.67
2022-11-12T02:27:46.837Z,3.42
2022-11-12T02:31:06.959Z,3.95
2022-11-12T02:34:27.481Z,3.88
2022-11-12T02:37:47.466Z,3.72
2022-11-12T02:41:08.200Z,3.45
2022-11-12T02:44:29.557Z,3.90
2022-11-12T02:47:50.055Z,3.40
2022-11-12T02:51:10.427Z,3.13
2022-11-12T02:54:30.904Z,3.67
2022-11-12T02:57:50.985Z,3.58
2022-11-12T03:01:10.983Z,3.78
2022-11-12T03:04:31.022Z,3.20
2022-11-12T03:07:56.563Z,4.25
2022-11-12T03:11:17.696Z,2.90
2022-11-12T03:14:38.104Z,4.90
2022-11-12T03:17:59.128Z,3.38
2022-11-12T03:21:19.643Z,3.38
2022-11-12T03:24:39.510Z,3.00
2022-11-12T03:28:03.807Z,3.40
2022-11-12T03:31:23.964Z,3.05
2022-11-12T03:34:44.174Z,3.53
2022-11-12T03:38:05.214Z,3.83
2022-11-12T03:41:27.994Z,4.13
2022-11-12T03:44:48.342Z,3.47
2022-11-12T03:48:11.619Z,3.08
2022-11-12T03:51:32.005Z,2.95
2022-11-12T03:54:52.002Z,3.60
2022-11-12T03:58:12.028Z,3.72
2022-11-12T04:01:32.660Z,3.03
2022-11-12T04:05:14.489Z,3.70
2022-11-12T04:08:37.805Z,3.35
2022-11-12T04:12:17.829Z,3.72
2022-11-12T04:15:38.200Z,2.95
2022-11-12T04:19:18.444Z,3.05
2022-11-12T04:22:38.793Z,3.20
2022-11-12T04:26:17.983Z,3.47
2022-11-12T04:29:56.642Z,2.83
2022-11-12T04:33:16.966Z,2.90
2022-11-12T04:36:37.332Z,3.20
2022-11-12T04:40:17.440Z,3.05
2022-11-12T04:43:56.524Z,2.88
2022-11-12T04:47:16.874Z,3.10
2022-11-12T04:50:37.926Z,3.00
2022-11-12T04:53:58.247Z,3.90
2022-11-12T04:57:18.544Z,4.53
2022-11-12T05:00:38.550Z,3.63
2022-11-12T05:03:58.687Z,3.60
2022-11-12T05:07:19.010Z,3.38
2022-11-12T05:10:39.042Z,3.38
2022-11-12T05:13:59.492Z,3.05
2022-11-12T05:17:19.615Z,3.38
2022-11-12T05:20:39.726Z,3.80
2022-11-12T05:24:00.314Z,3.42
2022-11-12T05:27:21.166Z,2.90
2022-11-12T05:30:41.215Z,3.10
2022-11-12T05:34:01.189Z,3.58
2022-11-12T05:37:21.656Z,3.42
2022-11-12T05:40:44.865Z,3.45
2022-11-12T05:44:05.378Z,3.90
2022-11-12T05:47:28.041Z,3.35
2022-11-12T05:54:34.683Z,3.15
2022-11-12T05:57:55.009Z,3.20
2022-11-12T06:01:15.252Z,3.33
2022-11-12T06:04:35.461Z,2.58
2022-11-12T06:07:55.618Z,2.97
2022-11-12T06:11:15.699Z,2.65
2022-11-12T06:14:35.919Z,2.83
2022-11-12T06:17:56.380Z,3.28
2022-11-12T06:21:20.025Z,3.65
2022-11-12T06:24:40.282Z,2.90
2022-11-12T06:28:00.629Z,4.22
2022-11-12T06:31:21.486Z,4.68
2022-11-12T06:34:44.528Z,2.70
2022-11-12T06:38:04.505Z,3.13
2022-11-12T06:41:25.070Z,2.53
2022-11-12T06:44:45.329Z,2.92
2022-11-12T06:48:05.659Z,2.50
2022-11-12T06:51:26.009Z,3.10
2022-11-12T06:54:46.214Z,3.30
2022-11-12T06:58:06.455Z,2.78
2022-11-12T07:01:27.041Z,3.05
2022-11-12T07:04:47.289Z,3.50
2022-11-12T07:08:08.017Z,3.33
2022-11-12T07:11:28.256Z,3.47
2022-11-12T07:14:48.452Z,2.95
2022-11-12T07:18:08.613Z,2.78
2022-11-12T07:21:28.772Z,3.92
2022-11-12T07:24:49.791Z,2.72
2022-11-12T07:28:11.186Z,3.40
2022-11-12T07:31:31.382Z,3.17
2022-11-12T07:34:51.474Z,3.83
2022-11-12T07:38:12.024Z,3.78
2022-11-12T07:41:32.044Z,6.57
2022-11-12T07:44:52.523Z,6.43
2022-11-12T07:48:12.610Z,4.70
2022-11-12T07:51:32.940Z,3.83
2022-11-12T07:54:53.013Z,6.00
2022-11-12T07:58:13.153Z,5.78
2022-11-12T08:01:34.412Z,6.95
2022-11-12T08:04:54.598Z,8.27
2022-11-12T08:08:14.665Z,7.40
2022-11-12T08:11:35.426Z,8.90
2022-11-12T08:14:55.580Z,5.82
2022-11-12T08:18:16.526Z,4.05
2022-11-12T08:21:37.106Z,5.50
2022-11-12T08:24:57.917Z,4.75
2022-11-12T08:28:18.302Z,4.53
2022-11-12T08:31:38.848Z,4.60
2022-11-12T08:35:00.435Z,4.60
2022-11-12T08:38:20.812Z,3.92
2022-11-12T08:41:41.129Z,3.85
2022-11-12T08:45:01.675Z,3.20
2022-11-12T08:48:23.249Z,4.43
2022-11-12T08:51:43.279Z,4.03
2022-11-12T08:55:03.874Z,3.20
2022-11-12T08:58:25.801Z,3.95
2022-11-12T09:01:46.484Z,4.85
2022-11-12T09:05:07.584Z,4.68
2022-11-12T09:08:28.141Z,4.00
2022-11-12T09:11:48.240Z,4.68
2022-11-12T09:15:36.261Z,6.07
2022-11-12T09:18:49.053Z,4.07
2022-11-12T09:22:09.511Z,4.00
2022-11-12T09:25:30.140Z,4.80
2022-11-12T09:28:52.324Z,4.72
2022-11-12T09:32:12.781Z,3.97
2022-11-12T09:35:33.190Z,3.67
2022-11-12T09:38:53.762Z,4.63
2022-11-12T09:42:17.726Z,4.32
2022-11-12T09:49:23.240Z,4.57
2022-11-12T09:52:45.649Z,4.43
2022-11-12T09:56:10.114Z,4.93
2022-11-12T09:59:34.560Z,4.63
2022-11-12T10:03:24.462Z,4.80
2022-11-12T10:06:56.759Z,5.13
2022-11-12T10:10:29.651Z,4.32
2022-11-12T10:13:58.803Z,4.20
2022-11-12T10:17:42.054Z,3.97
2022-11-12T10:21:31.513Z,4.90
2022-11-12T10:24:51.667Z,4.25
2022-11-12T10:28:38.713Z,4.32
2022-11-12T10:32:02.630Z,4.35
2022-11-12T10:35:23.917Z,5.10
2022-11-12T10:38:47.885Z,4.03
2022-11-12T10:45:29.048Z,3.97
2022-11-12T10:49:00.946Z,4.30
2022-11-12T10:52:24.052Z,4.80
2022-11-12T10:55:59.958Z,6.38
2022-11-12T10:59:21.876Z,6.90
2022-11-12T11:02:48.927Z,7.15
2022-11-12T11:06:15.079Z,8.52
2022-11-12T11:09:35.038Z,6.80
2022-11-12T11:13:20.600Z,6.70
2022-11-12T11:16:58.452Z,6.80
2022-11-12T11:20:25.977Z,6.32
2022-11-12T11:23:58.242Z,5.45
2022-11-12T11:27:30.811Z,6.70
2022-11-12T11:31:06.772Z,5.65
2022-11-12T11:34:35.649Z,4.25
2022-11-12T11:38:27.079Z,4.25
2022-11-12T11:42:02.797Z,5.53
2022-11-12T11:45:39.180Z,5.60
2022-11-12T11:49:20.486Z,6.18
2022-11-12T11:53:10.613Z,6.43
2022-11-12T11:56:36.656Z,6.13
2022-11-12T12:00:19.637Z,4.15
2022-11-12T12:03:55.225Z,4.60
2022-11-12T12:07:53.019Z,5.80
2022-11-12T12:11:47.302Z,4.80
2022-11-12T12:15:30.257Z,5.63
2022-11-12T12:18:59.139Z,5.32
2022-11-12T12:22:26.492Z,5.70
2022-11-12T12:25:49.242Z,5.53
2022-11-12T12:29:22.518Z,5.60
2022-11-12T12:32:48.075Z,4.80
2022-11-12T12:36:12.673Z,4.20
2022-11-12T12:39:48.167Z,4.72
2022-11-12T12:43:28.731Z,4.15
2022-11-12T12:47:01.032Z,4.38
2022-11-12T12:50:22.505Z,4.68
2022-11-12T12:53:43.029Z,5.13
2022-11-12T12:57:04.315Z,4.88
2022-11-12T13:00:41.377Z,4.60
2022-11-12T13:04:08.695Z,5.75
2022-11-12T13:07:48.097Z,4.78
2022-11-12T13:11:09.824Z,6.25
2022-11-12T13:14:36.418Z,10.90
2022-11-12T13:17:56.873Z,7.60
2022-11-12T13:21:19.596Z,6.53
2022-11-12T13:25:16.189Z,6.70
2022-11-12T13:28:36.506Z,5.97
2022-11-12T13:32:30.339Z,5.50
2022-11-12T13:35:50.415Z,4.68
2022-11-12T13:39:15.524Z,4.00
2022-11-12T13:42:50.696Z,3.80
2022-11-12T13:46:27.274Z,3.88
2022-11-12T13:49:48.425Z,4.43
2022-11-12T13:53:11.157Z,3.42
2022-11-12T13:56:36.079Z,4.32
2022-11-12T14:00:20.673Z,4.60
2022-11-12T14:03:47.906Z,6.88
2022-11-12T14:07:25.765Z,7.68
2022-11-12T14:11:07.517Z,9.05
2022-11-12T14:14:59.177Z,6.13
2022-11-12T14:18:49.388Z,5.78
2022-11-12T14:22:14.833Z,6.72
2022-11-12T14:25:48.487Z,5.40
2022-11-12T14:29:18.104Z,8.45
2022-11-12T14:32:40.029Z,4.65
2022-11-12T14:36:06.511Z,5.63
2022-11-12T14:39:28.650Z,6.47
2022-11-12T14:42:49.876Z,5.60
2022-11-12T14:46:23.645Z,5.13
2022-11-12T14:49:47.207Z,6.07
2022-11-12T14:53:28.550Z,7.88
2022-11-12T14:56:49.220Z,8.00
2022-11-12T15:00:35.315Z,8.68
2022-11-12T15:04:15.898Z,7.60
2022-11-12T15:07:58.839Z,7.60
2022-11-12T15:11:26.096Z,7.15
2022-11-12T15:14:46.169Z,9.32
2022-11-12T15:18:15.118Z,7.18
2022-11-12T15:21:35.880Z,8.23
2022-11-12T15:24:56.143Z,11.63
2022-11-12T15:28:25.456Z,11.23
2022-11-12T15:31:54.883Z,10.20
2022-11-12T15:35:33.024Z,11.05
2022-11-12T15:38:54.270Z,7.88
2022-11-12T15:42:34.169Z,9.32
2022-11-12T15:45:56.091Z,8.13
2022-11-12T15:49:16.505Z,8.13
2022-11-12T15:52:36.513Z,11.27
2022-11-12T15:55:56.914Z,8.98
2022-11-12T15:59:18.332Z,9.35
2022-11-12T16:02:39.018Z,8.40
2022-11-12T16:06:03.950Z,9.38
2022-11-12T16:09:27.530Z,9.38
2022-11-12T16:12:48.194Z,7.35
2022-11-12T16:16:11.917Z,10.00
2022-11-12T16:19:34.473Z,10.30
2022-11-12T16:22:55.711Z,9.70
2022-11-12T16:26:20.868Z,10.70
2022-11-12T16:29:44.721Z,9.38
2022-11-12T16:33:04.873Z,10.52
2022-11-12T16:36:25.252Z,26.25
2022-11-12T16:39:45.598Z,10.02
2022-11-12T16:43:05.601Z,36.20
2022-11-12T16:46:30.941Z,17.85
2022-11-12T16:49:51.023Z,15.93
2022-11-12T16:53:11.573Z,11.70
2022-11-12T16:56:32.795Z,13.45
2022-11-12T16:59:53.241Z,16.42
2022-11-12T17:03:14.080Z,14.05
2022-11-12T17:06:36.905Z,18.30
2022-11-12T17:09:57.351Z,13.75
2022-11-12T17:13:17.784Z,14.63
2022-11-12T17:16:37.985Z,12.10
2022-11-12T17:19:59.013Z,14.02
2022-11-12T17:23:19.217Z,15.68
2022-11-12T17:26:39.446Z,9.77
2022-11-12T17:29:59.570Z,9.88
2022-11-12T17:33:19.672Z,10.85
2022-11-12T17:36:43.486Z,11.98
2022-11-12T17:40:04.373Z,20.52
2022-11-12T17:43:26.006Z,16.88
2022-11-12T17:46:47.399Z,11.48
2022-11-12T17:50:08.049Z,11.30
2022-11-12T17:53:29.332Z,11.25
2022-11-12T17:56:49.988Z,10.98
2022-11-12T18:00:10.980Z,10.02
2022-11-12T18:03:31.090Z,10.23
2022-11-12T18:06:51.399Z,12.60
2022-11-12T18:10:16.933Z,11.60
2022-11-12T18:13:39.176Z,8.50
2022-11-12T18:17:01.279Z,10.35
2022-11-12T18:20:21.701Z,9.90
2022-11-12T18:23:43.885Z,12.48
2022-11-12T18:27:04.249Z,11.93
2022-11-12T18:30:24.678Z,11.73
2022-11-12T18:33:45.028Z,11.32
2022-11-12T18:37:05.356Z,12.50
2022-11-12T18:40:25.682Z,10.80
2022-11-12T18:43:46.126Z,11.93
2022-11-12T18:47:06.763Z,12.00
2022-11-12T18:50:27.145Z,14.07
2022-11-12T18:53:47.731Z,14.18
2022-11-12T18:57:08.118Z,15.15
2022-11-12T19:00:28.834Z,16.10
2022-11-12T19:03:53.565Z,12.38
2022-11-12T19:07:13.881Z,14.30
2022-11-12T19:10:34.143Z,15.57
2022-11-12T19:13:55.165Z,14.18
2022-11-12T19:17:15.500Z,9.68
2022-11-12T19:20:35.481Z,11.25
2022-11-12T19:23:56.049Z,11.93
2022-11-12T19:27:16.893Z,11.95
2022-11-12T19:30:37.923Z,15.45
2022-11-12T19:34:00.511Z,14.38
2022-11-12T19:37:34.983Z,11.90
2022-11-12T19:40:55.603Z,9.68
2022-11-12T19:44:18.477Z,9.13
2022-11-12T19:47:39.144Z,11.43
2022-11-12T19:51:04.349Z,10.68
2022-11-12T19:54:25.119Z,11.48
2022-11-12T19:57:45.633Z,11.23
2022-11-12T20:01:12.635Z,11.90
2022-11-12T20:04:32.532Z,12.07
2022-11-12T20:07:52.956Z,13.65
2022-11-12T20:11:14.424Z,16.73
2022-11-12T20:14:34.679Z,14.48
2022-11-12T20:17:54.838Z,13.85
2022-11-12T20:21:14.981Z,12.98
2022-11-12T20:24:35.487Z,15.85
2022-11-12T20:27:55.734Z,15.20
2022-11-12T20:31:21.544Z,11.43
2022-11-12T20:34:42.329Z,12.55
2022-11-12T20:38:03.911Z,12.43
2022-11-12T20:41:26.629Z,11.20
2022-11-12T20:44:46.900Z,10.35
2022-11-12T20:48:07.994Z,9.07
2022-11-12T20:51:32.923Z,9.38
2022-11-12T20:54:52.887Z,9.57
2022-11-12T20:58:13.086Z,9.98
2022-11-12T21:01:33.921Z,14.15
2022-11-12T21:04:54.830Z,14.00
2022-11-12T21:08:15.051Z,13.40
2022-11-12T21:11:35.818Z,14.45
2022-11-12T21:14:56.241Z,15.93
2022-11-12T21:18:16.614Z,17.48
2022-11-12T21:21:36.894Z,18.13
2022-11-12T21:24:57.335Z,13.65
2022-11-12T21:28:17.621Z,14.07
2022-11-12T21:31:38.312Z,13.68
2022-11-12T21:34:58.572Z,15.35
2022-11-12T21:38:18.831Z,12.05
2022-11-12T21:41:39.458Z,11.57
2022-11-12T21:44:59.934Z,11.88
2022-11-12T21:48:20.181Z,14.10
2022-11-12T21:51:40.418Z,16.25
2022-11-12T21:55:00.783Z,19.48
2022-11-12T21:58:20.946Z,14.57
2022-11-12T22:01:41.463Z,11.63
2022-11-12T22:05:01.591Z,11.65
2022-11-12T22:08:22.144Z,16.92
2022-11-12T22:11:42.482Z,13.65
2022-11-12T22:15:03.145Z,18.92
2022-11-12T22:18:23.343Z,17.20
2022-11-12T22:21:43.847Z,16.02
2022-11-12T22:25:04.599Z,12.45
2022-11-12T22:28:25.741Z,8.20
2022-11-12T22:31:45.977Z,8.05
2022-11-12T22:35:06.805Z,9.23
2022-11-12T22:38:27.088Z,7.13
2022-11-12T22:41:47.442Z,6.72
2022-11-12T22:45:08.638Z,8.68
2022-11-12T22:48:29.751Z,9.15
2022-11-12T22:51:50.192Z,9.35
2022-11-12T22:55:11.059Z,10.38
2022-11-12T22:58:36.207Z,18.38
2022-11-12T23:01:56.249Z,12.00
2022-11-12T23:05:16.379Z,8.43
2022-11-12T23:08:36.954Z,8.50
2022-11-12T23:11:57.564Z,7.70
2022-11-12T23:15:17.986Z,8.68
2022-11-12T23:18:38.558Z,9.38
2022-11-12T23:21:58.677Z,8.20
2022-11-12T23:25:19.143Z,9.10
2022-11-12T23:28:39.733Z,10.43
2022-11-12T23:32:00.367Z,9.80
2022-11-12T23:35:20.740Z,8.80
2022-11-12T23:38:41.869Z,9.48
2022-11-12T23:42:01.960Z,8.98
2022-11-12T23:45:22.559Z,8.52
2022-11-12T23:48:43.197Z,8.38
2022-11-12T23:52:03.626Z,8.73
2022-11-12T23:55:26.016Z,10.30
2022-11-12T23:58:48.306Z,9.00
